Time;durP1;ratioP1;P1;durP2;ratioP2;P2;SDS_P1;SDS_P2;PMS_P1;PMS_P2;Temp;Humidity;BMP_temperature;BMP_pressure;BME280_temperature;BME280_humidity;BME280_pressure;Samples;Min_cycle;Max_cycle;Signal;HPM_P1;HPM_P2
2022/12/09 00:02:14;;;;;;;38.87;25.23;;;;;;;-145.18;100.00;46719.00;5012944;28;20037;-75
2022/12/09 00:04:39;;;;;;;38.70;25.57;;;;;;;-145.18;100.00;46715.09;5031578;28;20154;-75
2022/12/09 00:07:04;;;;;;;38.80;24.93;;;;;;;-145.18;100.00;46720.94;5031165;28;20040;-75
2022/12/09 00:09:30;;;;;;;42.90;25.83;;;;;;;-145.18;100.00;46720.94;5031498;28;20387;-75
2022/12/09 00:11:55;;;;;;;41.33;24.90;;;;;;;-145.18;100.00;46715.09;5031368;28;20033;-75
2022/12/09 00:14:20;;;;;;;38.67;23.30;;;;;;;-145.18;100.00;46719.00;5031157;28;20092;-76
2022/12/09 00:16:46;;;;;;;43.63;25.20;;;;;;;-145.18;100.00;46717.03;5031384;28;20107;-76
2022/12/09 00:19:11;;;;;;;42.13;23.40;;;;;;;-145.18;100.00;46719.00;5030689;28;20025;-75
2022/12/09 00:21:36;;;;;;;41.30;24.27;;;;;;;-145.18;100.00;46717.03;5013451;28;20493;-75
2022/12/09 00:24:05;;;;;;;39.23;24.80;;;;;;;-145.18;100.00;46720.94;5030863;28;20048;-75
2022/12/09 00:26:31;;;;;;;40.70;23.60;;;;;;;-145.18;100.00;46720.94;5031184;28;20034;-75
2022/12/09 00:28:57;;;;;;;36.47;23.23;;;;;;;-145.18;100.00;46722.91;5030957;28;20290;-75
2022/12/09 00:31:28;;;;;;;40.07;24.57;;;;;;;-145.18;100.00;46717.03;5010559;28;20286;-75
2022/12/09 00:34:00;;;;;;;39.83;24.07;;;;;;;-145.18;100.00;46717.03;5031057;28;20646;-75
2022/12/09 00:36:26;;;;;;;37.13;23.40;;;;;;;-145.18;100.00;46720.94;5026397;28;20275;-75
2022/12/09 00:38:52;;;;;;;37.50;23.57;;;;;;;-145.18;100.00;46719.00;5030506;28;20309;-74
2022/12/09 00:41:18;;;;;;;42.37;25.20;;;;;;;-145.18;100.00;46722.91;5030733;28;20025;-74
2022/12/09 00:43:43;;;;;;;41.60;25.63;;;;;;;-145.18;100.00;46715.09;5031094;28;20880;-74
2022/12/09 00:46:10;;;;;;;43.93;27.43;;;;;;;-145.18;100.00;46715.09;5030472;28;20497;-75
2022/12/09 00:48:37;;;;;;;47.60;28.43;;;;;;;-145.18;100.00;46720.94;5030517;28;20037;-75
2022/12/09 00:51:07;;;;;;;47.43;28.57;;;;;;;-145.18;100.00;46717.03;5031071;28;20333;-75
2022/12/09 00:53:33;;;;;;;53.00;30.57;;;;;;;-145.18;100.00;46717.03;5030348;28;20263;-75
2022/12/09 00:55:59;;;;;;;45.63;28.87;;;;;;;-145.18;100.00;46719.00;5030637;28;20274;-75
2022/12/09 00:58:25;;;;;;;46.00;27.63;;;;;;;-145.18;100.00;46722.91;5029978;28;20033;-75
2022/12/09 01:00:52;;;;;;;54.20;28.47;;;;;;;-145.18;100.00;46722.91;5028211;28;20037;-75
2022/12/09 01:03:18;;;;;;;49.00;28.90;;;;;;;-145.18;100.00;46720.94;5030313;28;20036;-75
2022/12/09 01:05:43;;;;;;;48.43;27.13;;;;;;;-145.18;100.00;46713.13;5012830;28;20279;-75
2022/12/09 01:08:09;;;;;;;44.43;25.60;;;;;;;-145.18;100.00;46722.91;5030131;28;20103;-75
2022/12/09 01:10:36;;;;;;;43.23;24.13;;;;;;;-145.18;100.00;46719.00;5030309;28;20175;-75
2022/12/09 01:13:01;;;;;;;55.43;26.70;;;;;;;-145.18;100.00;46717.03;5030068;28;20103;-74
2022/12/09 01:15:27;;;;;;;47.13;24.57;;;;;;;-145.18;100.00;46715.09;5029774;28;20783;-75
2022/12/09 01:17:52;;;;;;;48.87;26.77;;;;;;;-145.18;100.00;46719.00;5032125;28;20037;-75
2022/12/09 01:20:17;;;;;;;52.07;27.43;;;;;;;-145.18;100.00;46724.84;5011737;28;20070;-75
2022/12/09 01:22:43;;;;;;;50.73;28.87;;;;;;;-145.18;100.00;46720.94;5030262;28;20413;-74
2022/12/09 01:25:08;;;;;;;49.87;25.23;;;;;;;-145.18;100.00;46719.00;5011999;28;20128;-75
2022/12/09 01:27:34;;;;;;;49.80;26.20;;;;;;;-145.18;100.00;46724.84;5029851;28;20044;-74
2022/12/09 01:29:59;;;;;;;57.43;28.97;;;;;;;-145.18;100.00;46717.03;5029873;28;20029;-75
2022/12/09 01:32:25;;;;;;;46.07;26.57;;;;;;;-145.18;100.00;46719.00;5029438;28;20068;-74
2022/12/09 01:34:50;;;;;;;51.40;27.10;;;;;;;-145.18;100.00;46720.94;5029183;28;20041;-75
2022/12/09 01:37:15;;;;;;;51.00;27.40;;;;;;;-145.18;100.00;46722.91;5029040;28;20496;-75
2022/12/09 01:39:41;;;;;;;57.30;29.17;;;;;;;-145.18;100.00;46724.84;5011719;28;20053;-75
2022/12/09 01:42:17;;;;;;;55.43;29.23;;;;;;;-145.18;100.00;46720.94;5029151;28;20556;-75
2022/12/09 01:45:22;;;;;;;59.87;29.33;;;;;;;-145.18;100.00;46722.91;5029636;28;20033;-75
2022/12/09 01:47:50;;;;;;;51.70;28.17;;;;;;;-145.18;100.00;46722.91;5004554;28;20279;-75
2022/12/09 01:50:17;;;;;;;52.17;28.70;;;;;;;-145.18;100.00;46719.00;5029202;28;20285;-75
2022/12/09 01:52:44;;;;;;;51.10;27.17;;;;;;;-145.18;100.00;46720.94;5011377;28;20270;-75
2022/12/09 01:55:10;;;;;;;52.50;27.13;;;;;;;-145.18;100.00;46724.84;5029275;28;21049;-75
2022/12/09 01:57:36;;;;;;;48.17;26.57;;;;;;;-145.18;100.00;46717.03;5029501;28;20301;-75
2022/12/09 02:00:02;;;;;;;47.63;26.57;;;;;;;-145.18;100.00;46720.94;5011851;28;20298;-75
2022/12/09 02:02:29;;;;;;;51.07;27.33;;;;;;;-145.18;100.00;46724.84;5028184;28;20040;-75
2022/12/09 02:04:55;;;;;;;52.30;26.83;;;;;;;-145.18;100.00;46726.81;5029435;28;20029;-75
2022/12/09 02:07:20;;;;;;;46.67;27.40;;;;;;;-145.18;100.00;46719.00;5011499;28;20778;-75
2022/12/09 02:09:51;;;;;;;47.87;26.77;;;;;;;-145.18;100.00;46720.94;5029063;28;20098;-75
2022/12/09 02:12:45;;;;;;;52.40;26.77;;;;;;;-145.18;100.00;46720.94;5028565;28;20025;-75
2022/12/09 02:15:33;;;;;;;51.70;27.57;;;;;;;-145.18;100.00;46722.91;5028611;28;20302;-75
2022/12/09 02:18:01;;;;;;;52.07;27.23;;;;;;;-145.18;100.00;46720.94;5028839;28;20470;-75
2022/12/09 02:20:47;;;;;;;51.87;27.87;;;;;;;-145.18;100.00;46722.91;5011030;28;20306;-75
2022/12/09 02:23:35;;;;;;;44.63;25.83;;;;;;;-145.18;100.00;46720.94;5028718;28;20345;-75
2022/12/09 02:26:17;;;;;;;49.03;26.97;;;;;;;-145.18;100.00;46722.91;5028721;28;20371;-75
2022/12/09 02:29:01;;;;;;;47.73;26.17;;;;;;;-145.18;100.00;46726.81;5029032;28;20650;-75
2022/12/09 02:31:26;;;;;;;48.33;26.87;;;;;;;-145.18;100.00;46722.91;5028401;28;20358;-75
2022/12/09 02:34:12;;;;;;;46.17;27.90;;;;;;;-145.18;100.00;46719.00;5010715;28;20361;-75
2022/12/09 02:36:57;;;;;;;;;;;;;;;-145.18;100.00;46724.84;5008851;28;20104;-75
2022/12/09 02:39:37;;;;;;;49.27;26.37;;;;;;;-145.18;100.00;46724.84;5014340;28;19928;-75
2022/12/09 02:42:07;;;;;;;48.77;28.27;;;;;;;-145.18;100.00;46726.81;5028737;28;20321;-75
2022/12/09 02:44:34;;;;;;;47.50;26.40;;;;;;;-145.18;100.00;46724.84;5028732;28;20278;-75
2022/12/09 02:47:00;;;;;;;49.43;26.73;;;;;;;-145.18;100.00;46722.91;5028494;28;20282;-75
2022/12/09 02:49:28;;;;;;;47.33;27.27;;;;;;;-145.18;100.00;46720.94;5028503;28;20283;-75
2022/12/09 02:51:56;;;;;;;47.63;27.20;;;;;;;-145.18;100.00;46724.84;5028381;28;20274;-75
2022/12/09 02:54:23;;;;;;;44.73;25.53;;;;;;;-145.18;100.00;46722.91;5010873;28;20301;-75
2022/12/09 02:56:59;;;;;;;47.83;27.07;;;;;;;-145.18;100.00;46726.81;5028611;28;20320;-75
2022/12/09 02:59:24;;;;;;;44.70;27.00;;;;;;;-145.18;100.00;46726.81;5025979;28;20278;-75
2022/12/09 03:01:50;;;;;;;49.93;26.33;;;;;;;-145.18;100.00;46724.84;5294898;22;20344;-74
2022/12/09 03:04:21;;;;;;;50.23;26.77;;;;;;;-145.18;100.00;46722.91;5005967;28;20391;-74
2022/12/09 03:06:51;;;;;;;45.50;25.37;;;;;;;-145.18;100.00;46724.84;5006843;28;20026;-74
2022/12/09 03:09:24;;;;;;;43.67;25.27;;;;;;;-145.18;100.00;46724.84;5008903;28;20278;-75
2022/12/09 03:11:51;;;;;;;46.40;25.60;;;;;;;-145.18;100.00;46726.81;4991915;28;20324;-75
2022/12/09 03:14:26;;;;;;;48.53;26.23;;;;;;;-145.18;100.00;46724.84;5009707;28;20294;-74
2022/12/09 03:17:12;;;;;;;46.30;25.30;;;;;;;-145.18;100.00;46720.94;5009481;28;20358;-74
2022/12/09 03:19:53;;;;;;;47.53;24.73;;;;;;;-145.18;100.00;46720.94;5009517;28;20303;-74
2022/12/09 03:22:22;;;;;;;42.93;23.23;;;;;;;-145.18;100.00;46728.75;5010014;28;20255;-75
2022/12/09 03:25:05;;;;;;;40.93;22.30;;;;;;;-145.18;100.00;46724.84;5009735;28;20294;-75
2022/12/09 03:27:37;;;;;;;52.37;25.40;;;;;;;-145.18;100.00;46722.91;4990722;28;20331;-75
2022/12/09 03:30:06;;;;;;;41.17;22.30;;;;;;;-145.18;100.00;46724.84;5008415;28;20679;-75
2022/12/09 03:32:32;;;;;;;40.23;22.77;;;;;;;-145.18;100.00;46722.91;5009721;28;20299;-75
2022/12/09 03:35:07;;;;;;;37.67;22.03;;;;;;;-145.18;100.00;46722.91;4992514;28;20326;-75
2022/12/09 03:37:37;;;;;;;44.13;22.17;;;;;;;-145.18;100.00;46720.94;5009865;28;20033;-74
2022/12/09 03:40:06;;;;;;;39.03;20.37;;;;;;;-145.18;100.00;46720.94;5010075;28;20029;-75
2022/12/09 03:42:41;;;;;;;40.00;21.00;;;;;;;-145.18;100.00;46728.75;5008817;28;20283;-75
2022/12/09 03:45:09;;;;;;;40.60;22.10;;;;;;;-145.18;100.00;46726.81;4992081;28;20274;-74
2022/12/09 03:47:36;;;;;;;41.40;20.17;;;;;;;-145.18;100.00;46722.91;4992051;28;20482;-74
2022/12/09 03:50:01;;;;;;;37.20;21.03;;;;;;;-145.18;100.00;46726.81;4992653;28;20663;-74
2022/12/09 03:52:44;;;;;;;32.10;18.33;;;;;;;-145.18;100.00;46722.91;5008975;28;20283;-74
2022/12/09 03:55:22;;;;;;;37.07;19.80;;;;;;;-145.18;100.00;46724.84;5009783;28;20108;-74
2022/12/09 03:57:51;;;;;;;37.27;18.90;;;;;;;-145.18;100.00;46724.84;5009594;28;20287;-74
2022/12/09 04:00:17;;;;;;;33.20;16.83;;;;;;;-145.18;100.00;46728.75;5009890;28;20291;-75
2022/12/09 04:02:43;;;;;;;40.57;17.33;;;;;;;-145.18;100.00;46726.81;4980925;28;20398;-74
2022/12/09 04:05:09;;;;;;;31.33;17.03;;;;;;;-145.18;100.00;46724.84;4972485;28;20041;-74
2022/12/09 04:07:34;;;;;;;35.77;17.00;;;;;;;-145.18;100.00;46726.81;4989996;28;20424;-74
2022/12/09 04:10:00;;;;;;;40.00;16.47;;;;;;;-145.18;100.00;46728.75;4990596;28;20152;-75
2022/12/09 04:12:25;;;;;;;33.70;17.13;;;;;;;-145.18;100.00;46732.66;4992425;28;20094;-75
2022/12/09 04:14:50;;;;;;;27.90;15.70;;;;;;;-145.18;100.00;46728.75;4993258;28;20088;-75
2022/12/09 04:17:16;;;;;;;29.07;15.50;;;;;;;-145.18;100.00;46732.66;4993514;28;20030;-75
2022/12/09 04:19:41;;;;;;;35.80;19.13;;;;;;;-145.18;100.00;46732.66;4992533;28;20076;-75
2022/12/09 04:22:07;;;;;;;29.10;16.17;;;;;;;-145.18;100.00;46734.63;4975963;28;20487;-74
2022/12/09 04:24:33;;;;;;;29.70;15.97;;;;;;;-145.18;100.00;46728.75;4993225;28;20030;-74
2022/12/09 04:26:58;;;;;;;31.67;18.07;;;;;;;-145.18;100.00;46732.66;4993039;28;20665;-74
2022/12/09 04:29:23;;;;;;;32.50;16.97;;;;;;;-145.18;100.00;46726.81;4993457;28;20042;-75
2022/12/09 04:31:49;;;;;;;30.77;16.20;;;;;;;-145.18;100.00;46732.66;4992921;28;20084;-75
2022/12/09 04:34:14;;;;;;;29.83;15.57;;;;;;;-145.18;100.00;46726.81;4992611;28;20396;-75
2022/12/09 04:36:39;;;;;;;31.97;15.90;;;;;;;-145.18;100.00;46728.75;4991620;28;20053;-75
2022/12/09 04:39:05;;;;;;;30.17;16.00;;;;;;;-145.18;100.00;46732.66;4992174;28;20038;-75
2022/12/09 04:41:31;;;;;;;28.47;15.83;;;;;;;-145.18;100.00;46732.66;4991793;28;20033;-74
2022/12/09 04:43:56;;;;;;;26.53;14.77;;;;;;;-145.18;100.00;46726.81;4992192;28;20636;-74
2022/12/09 04:46:22;;;;;;;30.93;15.97;;;;;;;-145.18;100.00;46728.75;4992570;28;20518;-75
2022/12/09 04:48:47;;;;;;;30.90;15.73;;;;;;;-145.18;100.00;46728.75;4974713;28;20038;-75
2022/12/09 04:51:14;;;;;;;29.30;14.90;;;;;;;-145.18;100.00;46728.75;4992050;28;20435;-75
2022/12/09 04:53:40;;;;;;;26.33;14.27;;;;;;;-145.18;100.00;46728.75;4991934;28;20037;-75
2022/12/09 04:56:17;;;;;;;24.43;13.83;;;;;;;-145.18;100.00;46728.75;4968981;28;20296;-74
2022/12/09 04:58:43;;;;;;;30.87;15.30;;;;;;;-145.18;100.00;46728.75;4991141;28;20330;-75
2022/12/09 05:01:14;;;;;;;31.73;16.03;;;;;;;-145.18;100.00;46722.91;4992013;28;20272;-75
2022/12/09 05:03:40;;;;;;;31.47;16.10;;;;;;;-145.18;100.00;46728.75;5009759;28;20284;-75
2022/12/09 05:06:10;;;;;;;29.80;14.33;;;;;;;-145.18;100.00;46734.63;5012205;28;20382;-75
2022/12/09 05:08:35;;;;;;;33.50;16.50;;;;;;;-145.18;100.00;46726.81;5011646;28;20030;-75
2022/12/09 05:11:01;;;;;;;30.10;15.13;;;;;;;-145.18;100.00;46734.63;4994801;28;20318;-75
2022/12/09 05:13:27;;;;;;;31.30;16.33;;;;;;;-145.18;100.00;46726.81;5011697;28;20044;-75
2022/12/09 05:15:53;;;;;;;29.40;16.03;;;;;;;-145.18;100.00;46726.81;5011894;28;20037;-75
2022/12/09 05:18:19;;;;;;;29.07;15.47;;;;;;;-145.18;100.00;46726.81;5011872;28;20118;-75
2022/12/09 05:20:44;;;;;;;33.60;16.67;;;;;;;-145.18;100.00;46728.75;4994300;28;20370;-75
2022/12/09 05:23:10;;;;;;;36.23;16.97;;;;;;;-145.18;100.00;46734.63;5010983;28;20038;-75
2022/12/09 05:25:35;;;;;;;32.87;16.07;;;;;;;-145.18;100.00;46728.75;4994080;28;20587;-75
2022/12/09 05:28:00;;;;;;;30.33;15.80;;;;;;;-145.18;100.00;46734.63;5011529;28;20034;-74
2022/12/09 05:30:26;;;;;;;31.97;16.10;;;;;;;-145.18;100.00;46722.91;5011567;28;20502;-74
2022/12/09 05:32:51;;;;;;;35.87;15.87;;;;;;;-145.18;100.00;46726.81;5026186;28;20083;-75
2022/12/09 05:35:16;;;;;;;28.20;14.70;;;;;;;-145.18;100.00;46726.81;5003774;28;20076;-75
2022/12/09 05:37:43;;;;;;;35.60;17.75;;;;;;;-145.18;100.00;46732.66;5010643;28;20054;-75
2022/12/09 05:40:09;;;;;;;34.97;18.57;;;;;;;-145.18;100.00;46726.81;5011522;28;20375;-75
2022/12/09 05:42:34;;;;;;;32.67;17.53;;;;;;;-145.18;100.00;46726.81;5010997;28;20041;-75
2022/12/09 05:45:00;;;;;;;39.40;20.77;;;;;;;-145.18;100.00;46724.84;4993812;28;20029;-75
2022/12/09 05:47:25;;;;;;;45.23;21.57;;;;;;;-145.18;100.00;46726.81;4992562;28;20088;-74
2022/12/09 05:49:50;;;;;;;38.13;19.73;;;;;;;-145.18;100.00;46724.84;5010861;28;20042;-75
2022/12/09 05:52:16;;;;;;;40.73;20.90;;;;;;;-145.18;100.00;46728.75;5011119;28;20096;-74
2022/12/09 05:54:41;;;;;;;45.73;21.03;;;;;;;-145.18;100.00;46726.81;5011126;28;20049;-75
2022/12/09 05:57:06;;;;;;;39.27;19.77;;;;;;;-145.18;100.00;46722.91;5010758;28;20038;-75
2022/12/09 05:59:32;;;;;;;33.97;19.00;;;;;;;-145.18;100.00;46724.84;5011095;28;20375;-75
2022/12/09 06:01:57;;;;;;;37.47;19.37;;;;;;;-145.18;100.00;46726.81;5010842;28;20099;-75
2022/12/09 06:04:23;;;;;;;38.67;19.77;;;;;;;-145.18;100.00;46732.66;5010557;28;20461;-75
2022/12/09 06:06:48;;;;;;;33.37;17.30;;;;;;;-145.18;100.00;46724.84;5010400;28;20030;-75
2022/12/09 06:09:13;;;;;;;33.00;16.27;;;;;;;-145.18;100.00;46728.75;5005480;28;20072;-75
2022/12/09 06:11:39;;;;;;;37.60;19.17;;;;;;;-145.18;100.00;46724.84;5007050;28;20041;-75
2022/12/09 06:14:09;;;;;;;40.43;19.23;;;;;;;-145.18;100.00;46732.66;5008564;28;20049;-75
2022/12/09 06:16:35;;;;;;;36.57;18.13;;;;;;;-145.18;100.00;46726.81;5009375;28;20025;-76
2022/12/09 06:19:00;;;;;;;35.90;17.03;;;;;;;-145.18;100.00;46728.75;4990222;28;20783;-75
2022/12/09 06:21:26;;;;;;;39.20;19.10;;;;;;;-145.18;100.00;46726.81;5009680;28;20046;-75
2022/12/09 06:23:52;;;;;;;42.23;20.87;;;;;;;-145.18;100.00;46726.81;5009138;28;20120;-75
2022/12/09 06:26:20;;;;;;;40.67;18.93;;;;;;;-145.18;100.00;46724.84;5010011;28;20041;-76
2022/12/09 06:28:46;;;;;;;38.83;19.70;;;;;;;-145.18;100.00;46726.81;5007861;28;20116;-76
2022/12/09 06:31:11;;;;;;;40.67;19.87;;;;;;;-145.18;100.00;46722.91;5009039;28;20522;-76
2022/12/09 06:33:37;;;;;;;42.40;20.27;;;;;;;-145.18;100.00;46724.84;4989490;28;20040;-76
2022/12/09 06:36:03;;;;;;;44.13;21.00;;;;;;;-145.18;100.00;46732.66;5009144;28;20502;-75
2022/12/09 06:38:29;;;;;;;41.08;20.95;;;;;;;-145.18;100.00;46720.94;4990851;28;20068;-75
2022/12/09 06:40:54;;;;;;;41.43;20.37;;;;;;;-145.18;100.00;46720.94;5009409;28;20114;-75
2022/12/09 06:43:20;;;;;;;41.37;20.53;;;;;;;-145.18;100.00;46719.00;5008857;28;20561;-75
2022/12/09 06:45:45;;;;;;;39.50;20.50;;;;;;;-145.18;100.00;46724.84;4990151;28;20041;-75
2022/12/09 06:48:10;;;;;;;36.50;18.53;;;;;;;-145.18;100.00;46724.84;5009230;28;20084;-75
2022/12/09 06:50:36;;;;;;;39.93;18.43;;;;;;;-145.18;100.00;46713.13;5008822;28;20033;-75
2022/12/09 06:53:02;;;;;;;29.73;15.63;;;;;;;-145.18;100.00;46722.91;5009334;28;20403;-75
2022/12/09 06:55:27;;;;;;;39.90;19.57;;;;;;;-145.18;100.00;46720.94;5008953;28;20045;-75
2022/12/09 06:57:53;;;;;;;40.80;19.80;;;;;;;-145.18;100.00;46717.03;4990594;28;20084;-75
2022/12/09 07:00:18;;;;;;;39.10;18.03;;;;;;;-145.18;100.00;46726.81;5008538;28;20038;-75
2022/12/09 07:02:44;;;;;;;33.70;15.90;;;;;;;-145.18;100.00;46724.84;5008393;28;20049;-75
2022/12/09 07:05:09;;;;;;;34.27;17.13;;;;;;;-145.18;100.00;46726.81;5006752;28;20064;-75
2022/12/09 07:07:35;;;;;;;29.20;15.83;;;;;;;-145.18;100.00;46724.84;5008605;28;20030;-75
2022/12/09 07:10:04;;;;;;;35.80;17.73;;;;;;;-145.18;100.00;46722.91;5006981;28;20026;-75
2022/12/09 07:12:29;;;;;;;31.23;15.67;;;;;;;-145.18;100.00;46722.91;5007873;28;20494;-75
2022/12/09 07:14:54;;;;;;;34.30;16.67;;;;;;;-145.18;100.00;46726.81;4991220;28;20349;-74
2022/12/09 07:17:20;;;;;;;32.70;15.97;;;;;;;-145.18;100.00;46732.66;5008933;28;20434;-75
2022/12/09 07:19:46;;;;;;;31.37;15.20;;;;;;;-145.18;100.00;46722.91;5007432;28;20132;-74
2022/12/09 07:22:12;;;;;;;33.42;16.80;;;;;;;-145.18;100.00;46720.94;5008590;28;20029;-74
2022/12/09 07:24:38;;;;;;;32.77;16.70;;;;;;;-145.18;100.00;46720.94;5007919;28;20453;-74
2022/12/09 07:27:06;;;;;;;35.50;16.58;;;;;;;-145.18;100.00;46726.81;5009104;28;20283;-74
2022/12/09 07:29:34;;;;;;;31.77;16.90;;;;;;;-145.18;100.00;46728.75;5008076;28;20038;-74
2022/12/09 07:31:59;;;;;;;36.88;17.70;;;;;;;-145.18;100.00;46724.84;5006925;28;20034;-74
2022/12/09 07:34:25;;;;;;;34.33;17.80;;;;;;;-145.18;100.00;46719.00;5007870;28;20367;-73
2022/12/09 07:36:50;;;;;;;36.27;18.07;;;;;;;-145.18;100.00;46722.91;5007138;28;20470;-73
2022/12/09 07:39:17;;;;;;;47.67;17.63;;;;;;;-145.18;100.00;46726.81;5008147;28;20156;-73
2022/12/09 07:41:43;;;;;;;75.20;20.40;;;;;;;-145.18;100.00;46722.91;4991203;28;20035;-73
2022/12/09 07:44:10;;;;;;;51.88;20.10;;;;;;;-145.18;100.00;46720.94;5007867;28;20037;-73
2022/12/09 07:46:36;;;;;;;41.67;17.77;;;;;;;-145.18;100.00;46722.91;5007199;28;20027;-73
2022/12/09 07:49:03;;;;;;;39.13;18.13;;;;;;;-145.18;100.00;46726.81;5011655;28;20494;-73
2022/12/09 07:51:28;;;;;;;36.80;18.52;;;;;;;-145.18;100.00;46722.91;5011784;28;20077;-73
2022/12/09 07:53:54;;;;;;;33.63;16.23;;;;;;;-145.18;100.00;46724.84;5009912;28;20037;-73
2022/12/09 07:56:21;;;;;;;30.08;16.50;;;;;;;-145.18;100.00;46724.84;5010681;28;20033;-72
2022/12/09 07:58:49;;;;;;;31.38;16.23;;;;;;;-145.18;100.00;46722.91;5009777;28;20129;-72
2022/12/09 08:01:18;;;;;;;30.85;15.38;;;;;;;-145.18;100.00;46724.84;5011944;28;20025;-72
2022/12/09 08:03:44;;;;;;;35.78;16.85;;;;;;;-145.18;100.00;46724.84;5012012;28;20521;-72
2022/12/09 08:06:15;;;;;;;38.47;18.70;;;;;;;-145.18;100.00;46719.00;4976656;28;20070;-72
2022/12/09 08:08:41;;;;;;;47.67;20.35;;;;;;;-145.18;100.00;46724.84;4992620;28;20391;-72
2022/12/09 08:11:21;;;;;;;66.65;20.33;;;;;;;-145.18;100.00;46719.00;4975771;28;20044;-71
2022/12/09 08:13:46;;;;;;;43.15;20.08;;;;;;;-145.18;100.00;46717.03;4993149;28;20503;-71
2022/12/09 08:16:13;;;;;;;48.57;18.27;;;;;;;-145.18;100.00;46713.13;4993619;28;20046;-71
2022/12/09 08:18:40;;;;;;;32.95;16.63;;;;;;;-145.18;100.00;46715.09;5008453;28;20076;-71
2022/12/09 08:21:08;;;;;;;32.67;16.60;;;;;;;-145.18;100.00;46715.09;5013019;28;20042;-71
2022/12/09 08:23:34;;;;;;;23.85;13.70;;;;;;;-145.18;100.00;46715.09;5012554;28;20034;-71
2022/12/09 08:25:59;;;;;;;23.03;12.87;;;;;;;-145.18;100.00;46711.19;5012618;28;20041;-70
2022/12/09 08:28:25;;;;;;;26.93;13.77;;;;;;;-145.18;100.00;46711.19;5012883;28;20026;-70
2022/12/09 08:30:51;;;;;;;33.25;15.32;;;;;;;-145.18;100.00;46713.13;5012147;28;20037;-70
2022/12/09 08:33:17;;;;;;;33.50;17.27;;;;;;;-145.18;100.00;46713.13;5012750;28;20655;-70
2022/12/09 08:35:43;;;;;;;31.13;16.03;;;;;;;-145.18;100.00;46715.09;5012154;28;20038;-70
2022/12/09 08:38:09;;;;;;;40.70;18.42;;;;;;;-145.18;100.00;46711.19;5012456;28;20030;-69
2022/12/09 08:40:34;;;;;;;34.17;17.23;;;;;;;-145.18;100.00;46707.28;4994703;28;20034;-69
2022/12/09 08:43:02;;;;;;;30.70;16.80;;;;;;;-145.18;100.00;46707.28;5012491;28;20401;-69
2022/12/09 08:45:28;;;;;;;30.40;17.13;;;;;;;-145.18;100.00;46713.13;5012157;28;20041;-69
2022/12/09 08:47:53;;;;;;;31.13;16.13;;;;;;;-145.18;100.00;46711.19;5012008;28;20038;-69
2022/12/09 08:50:18;;;;;;;28.77;15.67;;;;;;;-145.18;100.00;46707.28;5012347;28;20489;-69
2022/12/09 08:52:44;;;;;;;28.60;15.57;;;;;;;-145.18;100.00;46703.38;5012021;28;20123;-69
2022/12/09 08:55:09;;;;;;;27.37;15.93;;;;;;;-145.18;100.00;46703.38;5012129;28;20045;-69
2022/12/09 08:57:34;;;;;;;27.77;15.23;;;;;;;-145.18;100.00;46699.47;4993528;28;20026;-69
2022/12/09 09:00:00;;;;;;;30.63;14.83;;;;;;;-145.18;100.00;46703.38;5011694;28;20082;-69
2022/12/09 09:02:25;;;;;;;29.40;14.97;;;;;;;-145.18;100.00;46711.19;5012269;28;20060;-69
2022/12/09 09:04:50;;;;;;;82.17;18.53;;;;;;;-145.18;100.00;46707.28;4993980;28;20037;-69
2022/12/09 09:07:16;;;;;;;190.17;25.63;;;;;;;-145.18;100.00;46703.38;5012312;28;20061;-69
2022/12/09 09:09:41;;;;;;;127.40;22.53;;;;;;;-145.18;100.00;46707.28;5011605;28;20065;-69
2022/12/09 09:12:07;;;;;;;186.83;23.97;;;;;;;-145.18;100.00;46705.31;5010144;28;20038;-69
2022/12/09 09:14:32;;;;;;;117.53;27.67;;;;;;;-145.18;100.00;46705.31;5011089;28;20546;-69
2022/12/09 09:16:57;;;;;;;108.47;33.57;;;;;;;-145.18;100.00;46701.41;5011632;28;20088;-69
2022/12/09 09:19:24;;;;;;;106.77;36.73;;;;;;;-145.18;100.00;46699.47;5009474;28;20410;-69
2022/12/09 09:21:50;;;;;;;96.83;38.27;;;;;;;-145.18;100.00;46703.38;5008838;28;20034;-68
2022/12/09 09:24:20;;;;;;;90.33;36.37;;;;;;;-145.18;100.00;46703.38;5008408;28;20298;-68
2022/12/09 09:26:46;;;;;;;87.80;37.83;;;;;;;-145.18;100.00;46703.38;5010373;28;20291;-68
2022/12/09 09:29:14;;;;;;;98.07;39.33;;;;;;;-145.18;100.00;46701.41;5011589;28;20832;-69
2022/12/09 09:31:39;;;;;;;84.30;37.50;;;;;;;-145.18;100.00;46699.47;5010463;28;20374;-69
2022/12/09 09:34:05;;;;;;;87.10;38.00;;;;;;;-145.18;100.00;46701.41;5009744;28;20640;-70
2022/12/09 09:36:30;;;;;;;86.97;36.23;;;;;;;-145.18;100.00;46699.47;4992462;28;20042;-71
2022/12/09 09:38:56;;;;;;;77.83;32.07;;;;;;;-145.18;100.00;46705.31;4993039;28;20030;-71
2022/12/09 09:41:40;;;;;;;74.20;30.70;;;;;;;-145.18;100.00;46703.38;5011407;28;20029;-72
2022/12/09 09:44:33;;;;;;;73.70;31.87;;;;;;;-145.18;100.00;46707.28;5011454;28;20309;-72
2022/12/09 09:47:00;;;;;;;75.87;31.07;;;;;;;-145.18;100.00;46701.41;5011031;28;20423;-73
2022/12/09 09:49:44;;;;;;;68.80;29.50;;;;;;;-145.18;100.00;46703.38;5011282;28;20290;-72
2022/12/09 09:52:18;;;;;;;79.63;31.67;;;;;;;-145.18;100.00;46709.22;5011169;28;20382;-73
2022/12/09 09:54:43;;;;;;;71.97;28.63;;;;;;;-145.18;100.00;46703.38;5010282;28;20330;-73
2022/12/09 09:57:15;;;;;;;70.60;29.93;;;;;;;-145.18;100.00;46701.41;5011284;28;20342;-73
2022/12/09 10:00:01;;;;;;;67.27;30.23;;;;;;;-145.18;100.00;46701.41;5009083;28;20053;-72
2022/12/09 10:02:45;;;;;;;69.35;29.60;;;;;;;-145.18;100.00;46703.38;5008467;28;20294;-76
2022/12/09 10:05:26;;;;;;;71.33;29.50;;;;;;;-145.18;100.00;46701.41;5004390;28;20049;-77
2022/12/09 10:08:01;;;;;;;67.47;29.03;;;;;;;-145.18;100.00;46707.28;4998215;28;20358;-77
2022/12/09 10:11:00;;;;;;;64.32;29.50;;;;;;;-145.18;100.00;46705.31;5009540;28;20279;-78
2022/12/09 10:13:43;;;;;;;68.80;28.63;;;;;;;-145.18;100.00;46707.28;5007995;28;20041;-78
2022/12/09 10:16:23;;;;;;;69.23;30.13;;;;;;;-145.18;100.00;46713.13;5008687;28;20424;-75
2022/12/09 10:18:58;;;;;;;61.97;29.10;;;;;;;-145.18;100.00;46707.28;5008085;28;20294;-78
2022/12/09 10:21:27;;;;;;;59.30;27.85;;;;;;;-145.18;100.00;46707.28;5008148;28;20374;-77
2022/12/09 10:23:54;;;;;;;59.77;27.83;;;;;;;-145.18;100.00;46707.28;5005725;28;20026;-77
2022/12/09 10:26:25;;;;;;;58.17;27.93;;;;;;;-145.18;100.00;46713.13;4992507;28;20279;-74
2022/12/09 10:29:04;;;;;;;56.47;26.83;;;;;;;-145.18;100.00;46703.38;5007241;28;20312;-75
2022/12/09 10:31:30;;;;;;;52.63;27.20;;;;;;;-145.18;100.00;46703.38;5005971;28;20279;-75
2022/12/09 10:33:55;;;;;;;54.30;25.50;;;;;;;-145.18;100.00;46699.47;5010207;28;20450;-75
2022/12/09 10:36:25;;;;;;;56.57;26.87;;;;;;;-145.18;100.00;46695.56;5010183;28;20099;-75
2022/12/09 10:38:51;;;;;;;53.40;27.73;;;;;;;-145.18;100.00;46683.84;5009427;28;20053;-74
2022/12/09 10:43:33;;;;;;;56.33;25.67;;;;;;;-145.18;100.00;46668.22;5009982;28;20358;-74
2022/12/09 10:44:22;;;;;;;52.57;27.50;;;;;;;-145.18;100.00;46629.13;5009984;28;20409;-74
2022/12/09 10:46:55;;;;;;;49.67;25.73;;;;;;;-145.18;100.00;46611.56;5009562;28;20275;-74
2022/12/09 10:49:21;;;;;;;51.20;25.40;;;;;;;-145.18;100.00;46597.88;5010249;28;20271;-74
2022/12/09 10:51:49;;;;;;;54.80;26.60;;;;;;;-145.18;100.00;46597.88;4992125;28;20275;-74
2022/12/09 10:54:26;;;;;;;47.30;26.03;;;;;;;-145.18;100.00;46599.84;5009820;28;20034;-74
2022/12/09 10:57:22;;;;;;;46.33;23.50;;;;;;;-145.18;100.00;46603.75;5009638;28;20350;-74
2022/12/09 11:00:01;;;;;;;50.67;24.98;;;;;;;-145.18;100.00;46613.50;5009572;28;20287;-74
2022/12/09 11:02:27;;;;;;;50.70;26.07;;;;;;;-145.18;100.00;46636.94;5009808;28;20132;-74